createdAt,value
2018-08-04T00:00:15.034Z,63.16
2018-08-04T00:02:43.895Z,62.23
2018-08-04T00:05:12.569Z,62.81
2018-08-04T00:07:41.363Z,62.42
2018-08-04T00:10:15.802Z,63.01
2018-08-04T00:12:44.905Z,62.81
2018-08-04T00:15:13.517Z,63.30
2018-08-04T00:17:42.357Z,62.96
2018-08-04T00:20:11.129Z,63.47
2018-08-04T00:22:39.868Z,63.26
2018-08-04T00:25:08.544Z,64.15
2018-08-04T00:27:37.253Z,64.90
2018-08-04T00:30:08.089Z,63.68
2018-08-04T00:32:37.098Z,63.85
2018-08-04T00:35:06.059Z,64.60
2018-08-04T00:37:34.771Z,64.17
2018-08-04T00:40:03.590Z,64.91
2018-08-04T00:42:32.282Z,64.28
2018-08-04T00:45:00.873Z,65.31
2018-08-04T00:47:29.625Z,64.87
2018-08-04T00:49:58.291Z,64.45
2018-08-04T00:52:26.911Z,65.01
2018-08-04T00:54:55.551Z,65.08
2018-08-04T00:57:24.367Z,64.99
2018-08-04T00:59:53.160Z,64.98
2018-08-04T01:02:21.845Z,65.06
2018-08-04T01:04:50.511Z,65.53
2018-08-04T01:07:19.305Z,65.48
2018-08-04T01:09:47.939Z,65.10
2018-08-04T01:12:16.821Z,65.32
2018-08-04T01:14:45.473Z,65.32
2018-08-04T01:17:14.266Z,65.34
2018-08-04T01:19:42.900Z,65.95
2018-08-04T01:22:11.635Z,66.01
2018-08-04T01:24:40.300Z,65.49
2018-08-04T01:27:09.031Z,65.42
2018-08-04T01:29:37.744Z,65.80
2018-08-04T01:32:06.447Z,66.39
2018-08-04T01:34:35.098Z,65.97
2018-08-04T01:37:03.998Z,66.16
2018-08-04T01:39:33.744Z,66.28
2018-08-04T01:42:02.763Z,66.51
2018-08-04T01:44:31.557Z,66.66
2018-08-04T01:47:00.245Z,66.83
2018-08-04T01:49:28.966Z,66.77
2018-08-04T01:51:57.668Z,67.19
2018-08-04T01:54:26.344Z,66.63
2018-08-04T01:56:54.959Z,67.78
2018-08-04T01:59:23.584Z,66.74
2018-08-04T02:01:52.262Z,67.11
2018-08-04T02:04:20.831Z,67.65
2018-08-04T02:06:49.467Z,66.89
2018-08-04T02:09:18.387Z,66.95
2018-08-04T02:11:47.088Z,67.00
2018-08-04T02:14:15.804Z,67.05
2018-08-04T02:16:44.523Z,66.76
2018-08-04T02:19:13.246Z,66.96
2018-08-04T02:21:41.963Z,67.07
2018-08-04T02:24:10.649Z,66.96
2018-08-04T02:26:39.391Z,67.12
2018-08-04T02:29:08.122Z,67.47
2018-08-04T02:31:36.956Z,67.69
2018-08-04T02:34:05.700Z,67.45
2018-08-04T02:36:34.370Z,67.66
2018-08-04T02:39:03.209Z,67.54
2018-08-04T02:41:31.943Z,67.58
2018-08-04T02:44:00.601Z,67.57
2018-08-04T02:46:29.526Z,68.00
2018-08-04T02:48:58.204Z,67.82
2018-08-04T02:51:26.976Z,67.82
2018-08-04T02:53:55.808Z,67.64
2018-08-04T02:56:24.602Z,68.37
2018-08-04T02:58:53.280Z,67.53
2018-08-04T03:01:22.030Z,67.47
2018-08-04T03:03:50.800Z,67.60
2018-08-04T03:06:19.538Z,67.62
2018-08-04T03:08:48.323Z,67.38
2018-08-04T03:11:17.022Z,68.32
2018-08-04T03:13:45.736Z,67.58
2018-08-04T03:16:14.506Z,67.68
2018-08-04T03:18:43.190Z,67.45
2018-08-04T03:21:11.918Z,67.71
2018-08-04T03:23:40.754Z,67.68
2018-08-04T03:26:09.418Z,67.79
2018-08-04T03:28:38.154Z,67.28
2018-08-04T03:31:06.896Z,67.70
2018-08-04T03:33:35.714Z,68.13
2018-08-04T03:36:05.459Z,67.86
2018-08-04T03:38:34.129Z,68.02
2018-08-04T03:41:02.839Z,67.69
2018-08-04T03:43:31.790Z,67.38
2018-08-04T03:46:00.659Z,68.04
2018-08-04T03:48:29.304Z,68.10
2018-08-04T03:50:57.983Z,67.88
2018-08-04T03:53:26.699Z,67.80
2018-08-04T03:55:55.400Z,68.23
2018-08-04T03:58:24.086Z,67.97
2018-08-04T04:00:52.878Z,68.17
2018-08-04T04:03:21.530Z,67.81
2018-08-04T04:05:50.297Z,67.84
2018-08-04T04:08:19.032Z,67.45
2018-08-04T04:10:47.843Z,67.31
2018-08-04T04:13:16.514Z,67.24
2018-08-04T04:15:45.471Z,67.48
2018-08-04T04:18:14.093Z,67.31
2018-08-04T04:20:42.780Z,67.33
2018-08-04T04:23:11.515Z,67.22
2018-08-04T04:25:40.213Z,67.00
2018-08-04T04:28:09.133Z,67.17
2018-08-04T04:30:37.925Z,66.67
2018-08-04T04:33:06.639Z,66.57
2018-08-04T04:35:35.254Z,66.28
2018-08-04T04:38:04.023Z,65.91
2018-08-04T04:40:32.758Z,65.86
2018-08-04T04:43:01.577Z,65.71
2018-08-04T04:45:30.269Z,65.51
2018-08-04T04:47:59.058Z,64.92
2018-08-04T04:50:27.718Z,63.97
2018-08-04T04:52:56.494Z,62.10
2018-08-04T04:55:25.359Z,52.09
2018-08-04T04:57:54.078Z,47.62
2018-08-04T05:00:23.070Z,46.49
2018-08-04T05:02:51.830Z,47.14
2018-08-04T05:05:20.507Z,49.25
2018-08-04T05:07:49.167Z,50.39
2018-08-04T05:10:17.944Z,46.83
2018-08-04T05:12:46.643Z,42.40
2018-08-04T05:15:15.378Z,38.87
2018-08-04T05:17:44.080Z,35.13
2018-08-04T05:20:12.885Z,32.03
2018-08-04T05:22:41.516Z,31.80
2018-08-04T05:25:10.181Z,30.52
2018-08-04T05:27:38.807Z,32.64
2018-08-04T05:30:07.799Z,37.84
2018-08-04T05:32:36.611Z,41.47
2018-08-04T05:35:05.522Z,44.08
2018-08-04T05:37:34.183Z,45.76
2018-08-04T05:40:02.885Z,46.30
2018-08-04T05:42:31.852Z,46.98
2018-08-04T05:45:00.557Z,47.08
2018-08-04T05:47:29.363Z,47.64
2018-08-04T05:49:58.411Z,47.02
2018-08-04T05:52:27.215Z,47.49
2018-08-04T05:54:56.155Z,47.86
2018-08-04T05:57:24.835Z,49.31
2018-08-04T05:59:53.578Z,49.45
2018-08-04T06:02:22.314Z,49.09
2018-08-04T06:04:51.030Z,48.14
2018-08-04T06:07:19.686Z,48.61
2018-08-04T06:09:48.372Z,49.75
2018-08-04T06:12:17.035Z,49.12
2018-08-04T06:14:45.673Z,49.95
2018-08-04T06:17:14.284Z,49.45
2018-08-04T06:19:42.962Z,49.83
2018-08-04T06:22:11.713Z,49.27
2018-08-04T06:24:40.411Z,49.59
2018-08-04T06:27:09.095Z,48.79
2018-08-04T06:29:37.845Z,49.67
2018-08-04T06:32:06.738Z,49.29
2018-08-04T06:34:35.514Z,49.34
2018-08-04T06:37:04.197Z,48.29
2018-08-04T06:39:32.916Z,48.85
2018-08-04T06:42:01.880Z,48.66
2018-08-04T06:44:30.578Z,49.04
2018-08-04T06:46:59.388Z,48.34
2018-08-04T06:49:28.501Z,48.47
2018-08-04T06:51:57.247Z,47.85
2018-08-04T06:54:26.043Z,47.90
2018-08-04T06:56:54.746Z,47.96
2018-08-04T06:59:23.540Z,47.82
2018-08-04T07:01:52.214Z,48.52
2018-08-04T07:04:20.989Z,48.74
2018-08-04T07:06:49.757Z,49.68
2018-08-04T07:09:18.402Z,49.20
2018-08-04T07:11:47.125Z,49.25
2018-08-04T07:14:15.853Z,49.74
2018-08-04T07:16:44.583Z,48.32
2018-08-04T07:19:13.275Z,48.76
2018-08-04T07:21:42.060Z,47.92
2018-08-04T07:24:10.772Z,46.84
2018-08-04T07:26:39.389Z,46.29
2018-08-04T07:29:08.203Z,44.51
2018-08-04T07:31:37.055Z,44.06
2018-08-04T07:34:05.899Z,44.56
2018-08-04T07:36:34.771Z,44.56
2018-08-04T07:39:04.467Z,45.56
2018-08-04T07:41:33.180Z,44.81
2018-08-04T07:44:02.435Z,41.99
2018-08-04T07:46:31.097Z,43.21
2018-08-04T07:48:59.923Z,42.54
2018-08-04T07:51:28.585Z,42.18
2018-08-04T07:53:57.260Z,41.61
2018-08-04T07:56:25.968Z,42.27
2018-08-04T07:58:54.690Z,42.08
2018-08-04T08:01:23.451Z,41.84
2018-08-04T08:03:52.082Z,41.81
2018-08-04T08:06:20.864Z,40.30
2018-08-04T08:08:49.636Z,38.71
2018-08-04T08:11:18.438Z,37.66
2018-08-04T08:13:47.122Z,39.12
2018-08-04T08:16:15.965Z,40.13
2018-08-04T08:18:44.693Z,40.79
2018-08-04T08:21:13.463Z,41.38
2018-08-04T08:23:42.073Z,41.93
2018-08-04T08:26:12.782Z,42.14
2018-08-04T08:28:42.253Z,42.73
2018-08-04T08:31:11.109Z,43.20
2018-08-04T08:33:40.824Z,42.70
2018-08-04T08:36:10.164Z,42.72
2018-08-04T08:38:38.745Z,41.28
2018-08-04T08:41:07.608Z,40.45
2018-08-04T08:43:36.283Z,41.04
2018-08-04T08:46:04.975Z,41.77
2018-08-04T08:48:33.659Z,41.52
2018-08-04T08:51:02.348Z,40.63
2018-08-04T08:53:31.162Z,39.65
2018-08-04T08:55:59.931Z,38.52
2018-08-04T08:58:28.558Z,36.75
2018-08-04T09:00:57.249Z,36.28
2018-08-04T09:03:25.987Z,36.42
2018-08-04T09:05:54.753Z,35.20
2018-08-04T09:08:23.835Z,35.96
2018-08-04T09:10:52.462Z,36.00
2018-08-04T09:13:21.247Z,36.46
2018-08-04T09:15:56.454Z,36.44
2018-08-04T09:18:25.145Z,37.52
2018-08-04T09:20:53.797Z,36.97
2018-08-04T09:23:22.585Z,37.98
2018-08-04T09:25:51.391Z,36.43
2018-08-04T09:28:20.142Z,36.02
2018-08-04T09:30:48.829Z,34.01
2018-08-04T09:33:17.547Z,33.55
2018-08-04T09:35:46.290Z,32.25
2018-08-04T09:38:14.930Z,33.37
2018-08-04T09:40:43.871Z,34.04
2018-08-04T09:43:12.511Z,34.34
2018-08-04T09:45:41.286Z,34.80
2018-08-04T09:48:10.046Z,33.06
2018-08-04T09:50:38.701Z,33.69
2018-08-04T09:53:07.330Z,34.47
2018-08-04T09:55:35.978Z,35.43
2018-08-04T09:58:04.852Z,34.99
2018-08-04T10:00:38.635Z,34.12
2018-08-04T10:03:07.280Z,34.21
2018-08-04T10:05:36.037Z,33.36
2018-08-04T10:08:04.774Z,32.44
2018-08-04T10:10:33.362Z,31.55
2018-08-04T10:13:01.990Z,32.67
2018-08-04T10:15:30.864Z,33.24
2018-08-04T10:17:59.557Z,33.53
2018-08-04T10:20:28.209Z,33.76
2018-08-04T10:22:56.993Z,33.12
2018-08-04T10:25:25.887Z,34.92
2018-08-04T10:27:55.058Z,32.26
2018-08-04T10:30:24.010Z,32.29
2018-08-04T10:32:52.723Z,32.80
2018-08-04T10:35:21.411Z,33.18
2018-08-04T10:37:50.361Z,30.97
2018-08-04T10:40:19.915Z,31.68
2018-08-04T10:42:48.783Z,29.80
2018-08-04T10:45:17.825Z,29.99
2018-08-04T10:47:46.604Z,29.80
2018-08-04T10:50:15.379Z,30.41
2018-08-04T10:52:44.058Z,30.33
2018-08-04T10:55:12.931Z,29.50
2018-08-04T10:57:41.743Z,29.75
2018-08-04T11:00:10.846Z,30.49
2018-08-04T11:02:40.647Z,29.22
2018-08-04T11:05:09.516Z,29.60
2018-08-04T11:07:38.334Z,29.84
2018-08-04T11:10:07.170Z,30.95
2018-08-04T11:12:36.068Z,31.23
2018-08-04T11:15:04.985Z,32.40
2018-08-04T11:17:33.786Z,33.58
2018-08-04T11:20:02.768Z,33.71
2018-08-04T11:22:31.452Z,34.23
2018-08-04T11:25:00.146Z,34.66
2018-08-04T11:27:28.832Z,33.42
2018-08-04T11:29:57.503Z,31.29
2018-08-04T11:32:26.246Z,31.54
2018-08-04T11:34:54.916Z,29.62
2018-08-04T11:37:23.572Z,29.36
2018-08-04T11:39:52.286Z,30.23
2018-08-04T11:42:20.997Z,31.79
2018-08-04T11:44:49.715Z,32.10
2018-08-04T11:47:18.478Z,33.44
2018-08-04T11:49:47.328Z,33.98
2018-08-04T11:52:15.937Z,34.40
2018-08-04T11:54:44.608Z,35.20
2018-08-04T11:57:13.277Z,35.69
2018-08-04T11:59:41.998Z,36.20
2018-08-04T12:02:10.746Z,36.13
2018-08-04T12:04:39.577Z,36.81
2018-08-04T12:07:08.332Z,37.13
2018-08-04T12:09:37.215Z,36.62
2018-08-04T12:12:05.817Z,36.49
2018-08-04T12:14:34.486Z,36.11
2018-08-04T12:17:03.239Z,35.52
2018-08-04T12:19:31.892Z,36.12
2018-08-04T12:22:00.535Z,34.27
2018-08-04T12:24:29.327Z,33.41
2018-08-04T12:26:57.952Z,32.44
2018-08-04T12:29:26.697Z,29.68
2018-08-04T12:31:55.388Z,28.44
2018-08-04T12:34:24.049Z,27.37
2018-08-04T12:36:52.782Z,29.10
2018-08-04T12:39:21.537Z,28.25
2018-08-04T12:41:50.170Z,28.12
2018-08-04T12:44:18.841Z,28.91
2018-08-04T12:46:47.543Z,28.88
2018-08-04T12:49:16.271Z,28.53
2018-08-04T12:51:44.954Z,29.04
2018-08-04T12:54:13.668Z,28.68
2018-08-04T12:56:42.459Z,29.04
2018-08-04T12:59:11.255Z,29.20
2018-08-04T13:01:39.949Z,30.43
2018-08-04T13:04:08.713Z,31.09
2018-08-04T13:06:37.406Z,30.79
2018-08-04T13:09:08.698Z,31.22
2018-08-04T13:11:37.721Z,31.00
2018-08-04T13:14:06.494Z,31.21
2018-08-04T13:16:35.319Z,30.83
2018-08-04T13:19:04.041Z,31.61
2018-08-04T13:21:32.808Z,31.14
2018-08-04T13:24:01.471Z,31.23
2018-08-04T13:26:30.140Z,30.87
2018-08-04T13:28:58.926Z,30.56
2018-08-04T13:31:27.712Z,30.37
2018-08-04T13:33:56.324Z,29.58
2018-08-04T13:36:25.010Z,28.91
2018-08-04T13:38:53.869Z,29.33
2018-08-04T13:41:22.614Z,28.77
2018-08-04T13:43:51.242Z,28.04
2018-08-04T13:46:20.136Z,27.05
2018-08-04T13:48:49.029Z,28.25
2018-08-04T13:51:17.822Z,27.70
2018-08-04T13:53:46.526Z,28.68
2018-08-04T13:56:15.205Z,28.18
2018-08-04T13:58:44.217Z,27.55
2018-08-04T14:01:12.945Z,26.84
2018-08-04T14:03:41.639Z,27.54
2018-08-04T14:06:10.290Z,27.20
2018-08-04T14:08:39.000Z,26.41
2018-08-04T14:11:07.887Z,25.53
2018-08-04T14:13:36.773Z,25.31
2018-08-04T14:16:05.919Z,23.83
2018-08-04T14:18:34.545Z,22.85
2018-08-04T14:21:03.518Z,23.44
2018-08-04T14:23:32.352Z,20.12
2018-08-04T14:26:01.049Z,19.68
2018-08-04T14:28:29.780Z,17.94
2018-08-04T14:30:58.624Z,15.99
2018-08-04T14:33:28.019Z,16.28
2018-08-04T14:35:56.687Z,15.00
2018-08-04T14:38:25.383Z,15.50
2018-08-04T14:40:54.085Z,15.51
2018-08-04T14:43:22.823Z,15.40
2018-08-04T14:45:51.600Z,16.19
2018-08-04T14:48:20.335Z,18.94
2018-08-04T14:50:49.044Z,19.60
2018-08-04T14:53:17.766Z,19.18
2018-08-04T14:55:46.419Z,17.96
2018-08-04T14:58:15.062Z,17.05
2018-08-04T15:00:43.817Z,16.77
2018-08-04T15:03:12.561Z,16.62
2018-08-04T15:05:41.225Z,16.79
2018-08-04T15:08:09.991Z,16.65
2018-08-04T15:10:38.799Z,16.16
2018-08-04T15:13:07.535Z,15.54
2018-08-04T15:15:36.410Z,17.10
2018-08-04T15:18:05.681Z,18.39
2018-08-04T15:20:34.285Z,19.32
2018-08-04T15:23:02.955Z,21.97
2018-08-04T15:25:31.575Z,23.56
2018-08-04T15:28:00.329Z,24.69
2018-08-04T15:30:29.026Z,26.14
2018-08-04T15:32:58.121Z,26.55
2018-08-04T15:35:26.839Z,27.27
2018-08-04T15:37:55.588Z,26.50
2018-08-04T15:40:24.477Z,26.03
2018-08-04T15:42:53.243Z,25.88
2018-08-04T15:45:21.961Z,25.52
2018-08-04T15:47:50.758Z,27.00
2018-08-04T15:50:19.507Z,27.32
2018-08-04T15:52:48.230Z,26.80
2018-08-04T15:55:16.978Z,26.33
2018-08-04T15:57:46.680Z,26.91
2018-08-04T16:00:15.401Z,27.27
2018-08-04T16:02:44.264Z,25.67
2018-08-04T16:05:12.980Z,26.03
2018-08-04T16:07:41.593Z,26.06
2018-08-04T16:10:10.526Z,25.70
2018-08-04T16:12:39.377Z,25.31
2018-08-04T16:15:08.112Z,25.55
2018-08-04T16:17:39.782Z,25.80
2018-08-04T16:20:12.812Z,25.44
2018-08-04T16:22:41.788Z,25.51
2018-08-04T16:25:10.551Z,26.25
2018-08-04T16:27:39.211Z,26.32
2018-08-04T16:30:09.138Z,26.02
2018-08-04T16:32:37.892Z,26.37
2018-08-04T16:35:07.308Z,27.04
2018-08-04T16:37:36.186Z,27.06
2018-08-04T16:40:05.805Z,28.00
2018-08-04T16:42:34.956Z,28.49
2018-08-04T16:45:04.431Z,28.32
2018-08-04T16:47:33.088Z,28.57
2018-08-04T16:50:01.941Z,29.01
2018-08-04T16:52:30.633Z,28.14
2018-08-04T16:54:59.505Z,28.95
2018-08-04T16:57:28.166Z,28.55
2018-08-04T16:59:56.918Z,29.28
2018-08-04T17:02:25.548Z,29.80
2018-08-04T17:04:54.217Z,30.56
2018-08-04T17:07:22.917Z,30.43
2018-08-04T17:09:51.726Z,31.15
2018-08-04T17:12:20.406Z,30.87
2018-08-04T17:14:49.260Z,31.15
2018-08-04T17:17:17.921Z,30.22
2018-08-04T17:19:46.700Z,30.83
2018-08-04T17:22:15.399Z,29.94
2018-08-04T17:24:44.192Z,30.07
2018-08-04T17:27:12.879Z,30.30
2018-08-04T17:29:41.589Z,30.38
2018-08-04T17:32:10.371Z,30.35
2018-08-04T17:34:39.258Z,31.40
2018-08-04T17:37:07.897Z,31.28
2018-08-04T17:39:36.579Z,31.81
2018-08-04T17:42:05.596Z,32.51
2018-08-04T17:44:34.332Z,32.37
2018-08-04T17:47:03.108Z,32.02
2018-08-04T17:49:31.749Z,32.19
2018-08-04T17:52:00.466Z,32.97
2018-08-04T17:54:29.204Z,32.51
2018-08-04T17:56:58.014Z,32.79
2018-08-04T17:59:26.727Z,32.82
2018-08-04T18:01:55.388Z,32.79
2018-08-04T18:04:24.134Z,33.43
2018-08-04T18:06:52.805Z,32.80
2018-08-04T18:09:21.526Z,32.83
2018-08-04T18:11:50.230Z,33.32
2018-08-04T18:14:18.869Z,33.30
2018-08-04T18:16:48.599Z,33.25
2018-08-04T18:19:17.249Z,33.40
2018-08-04T18:21:46.244Z,33.27
2018-08-04T18:24:14.981Z,33.19
2018-08-04T18:26:43.593Z,33.17
2018-08-04T18:29:12.388Z,33.37
2018-08-04T18:31:41.087Z,33.19
2018-08-04T18:34:09.742Z,33.41
2018-08-04T18:36:38.456Z,33.33
2018-08-04T18:39:08.370Z,33.78
2018-08-04T18:41:37.321Z,33.47
2018-08-04T18:44:06.104Z,34.14
2018-08-04T18:46:34.792Z,33.70
2018-08-04T18:49:03.548Z,34.24
2018-08-04T18:51:32.205Z,34.52
2018-08-04T18:54:00.921Z,34.39
2018-08-04T18:56:29.605Z,35.27
2018-08-04T18:58:58.381Z,35.98
2018-08-04T19:01:27.075Z,35.51
2018-08-04T19:03:55.658Z,36.32
2018-08-04T19:06:24.388Z,36.36
2018-08-04T19:08:53.072Z,36.23
2018-08-04T19:11:21.897Z,36.95
2018-08-04T19:13:50.537Z,36.95
2018-08-04T19:16:19.299Z,37.69
2018-08-04T19:18:47.963Z,37.97
2018-08-04T19:21:16.663Z,37.79
2018-08-04T19:23:45.433Z,38.25
2018-08-04T19:26:14.124Z,38.51
2018-08-04T19:28:42.821Z,38.18
2018-08-04T19:31:11.407Z,38.18
2018-08-04T19:33:40.145Z,38.36
2018-08-04T19:36:08.791Z,38.69
2018-08-04T19:38:37.573Z,38.17
2018-08-04T19:41:06.189Z,39.25
2018-08-04T19:43:34.973Z,38.96
2018-08-04T19:46:03.721Z,39.57
2018-08-04T19:48:32.415Z,39.37
2018-08-04T19:51:01.519Z,38.89
2018-08-04T19:53:30.183Z,39.54
2018-08-04T19:55:58.858Z,39.36
2018-08-04T19:58:27.549Z,40.92
2018-08-04T20:00:56.548Z,39.11
2018-08-04T20:03:25.242Z,39.71
2018-08-04T20:05:54.053Z,39.19
2018-08-04T20:08:22.769Z,40.00
2018-08-04T20:10:51.830Z,39.31
2018-08-04T20:13:20.553Z,40.01
2018-08-04T20:15:49.210Z,40.60
2018-08-04T20:18:18.556Z,40.60
2018-08-04T20:20:47.180Z,40.86
2018-08-04T20:23:16.046Z,41.10
2018-08-04T20:25:44.767Z,41.07
2018-08-04T20:28:13.521Z,41.49
2018-08-04T20:30:42.500Z,42.04
2018-08-04T20:33:11.274Z,42.09
2018-08-04T20:35:40.054Z,42.68
2018-08-04T20:38:09.075Z,42.56
2018-08-04T20:40:37.811Z,42.50
2018-08-04T20:43:06.622Z,42.83
2018-08-04T20:45:35.958Z,43.33
2018-08-04T20:48:04.878Z,43.02
2018-08-04T20:50:33.563Z,43.82
2018-08-04T20:53:02.353Z,43.58
2018-08-04T20:55:31.257Z,43.48
2018-08-04T20:57:59.966Z,43.79
2018-08-04T21:00:34.610Z,44.20
2018-08-04T21:03:03.321Z,44.75
2018-08-04T21:05:31.987Z,44.91
2018-08-04T21:08:00.675Z,44.77
2018-08-04T21:10:29.306Z,44.63
2018-08-04T21:12:57.993Z,45.23
2018-08-04T21:15:26.666Z,45.50
2018-08-04T21:17:55.348Z,46.29
2018-08-04T21:20:23.943Z,46.52
2018-08-04T21:22:52.741Z,45.96
2018-08-04T21:25:22.526Z,46.24
2018-08-04T21:27:51.181Z,46.60
2018-08-04T21:30:19.924Z,46.26
2018-08-04T21:32:48.532Z,46.63
2018-08-04T21:35:17.247Z,46.91
2018-08-04T21:37:45.903Z,47.35
2018-08-04T21:40:14.571Z,46.92
2018-08-04T21:42:43.320Z,47.31
2018-08-04T21:45:11.945Z,47.60
2018-08-04T21:47:40.748Z,47.90
2018-08-04T21:50:09.647Z,47.60
2018-08-04T21:52:38.321Z,47.92
2018-08-04T21:55:06.984Z,48.52
2018-08-04T21:57:35.669Z,48.33
2018-08-04T22:00:06.761Z,48.75
2018-08-04T22:02:35.682Z,48.66
2018-08-04T22:05:04.449Z,48.98
2018-08-04T22:07:46.385Z,49.15
2018-08-04T22:10:15.657Z,49.64
2018-08-04T22:12:44.497Z,49.75
2018-08-04T22:15:14.379Z,50.07
2018-08-04T22:17:43.175Z,50.03
2018-08-04T22:20:13.143Z,50.17
2018-08-04T22:22:42.367Z,50.82
2018-08-04T22:25:14.443Z,50.67
2018-08-04T22:27:43.220Z,50.58
2018-08-04T22:30:13.117Z,50.70
2018-08-04T22:32:42.327Z,51.21
2018-08-04T22:35:11.060Z,51.18
2018-08-04T22:37:40.447Z,51.32
2018-08-04T22:40:10.289Z,51.43
2018-08-04T22:42:39.325Z,51.34
2018-08-04T22:45:49.444Z,51.51
2018-08-04T22:48:18.350Z,52.35
2018-08-04T22:50:46.982Z,52.12
2018-08-04T22:53:16.180Z,51.84
2018-08-04T22:55:44.869Z,52.10
2018-08-04T22:58:13.644Z,52.69
2018-08-04T23:00:43.569Z,52.50
2018-08-04T23:03:12.908Z,52.55
2018-08-04T23:05:41.751Z,51.98
2018-08-04T23:08:11.679Z,52.43
2018-08-04T23:10:40.773Z,52.38
2018-08-04T23:13:09.916Z,52.73
2018-08-04T23:15:38.975Z,52.75
2018-08-04T23:18:08.927Z,53.09
2018-08-04T23:20:37.811Z,53.27
2018-08-04T23:23:06.760Z,53.24
2018-08-04T23:25:35.590Z,53.44
2018-08-04T23:28:04.185Z,53.38
2018-08-04T23:30:33.052Z,53.68
2018-08-04T23:33:01.688Z,53.92
2018-08-04T23:35:30.459Z,53.71
2018-08-04T23:37:59.130Z,53.77
2018-08-04T23:40:27.765Z,54.25
2018-08-04T23:42:56.612Z,54.40
2018-08-04T23:45:25.309Z,54.76
2018-08-04T23:47:54.132Z,54.44
2018-08-04T23:50:22.793Z,54.27
2018-08-04T23:52:51.667Z,54.44
2018-08-04T23:55:20.320Z,54.94
2018-08-04T23:57:49.008Z,54.77
